Time;durP1;ratioP1;P1;durP2;ratioP2;P2;SDS_P1;SDS_P2;PMS_P1;PMS_P2;Temp;Humidity;BMP_temperature;BMP_pressure;BME280_temperature;BME280_humidity;BME280_pressure;Samples;Min_cycle;Max_cycle;Signal;HPM_P1;HPM_P2
2021/09/28 00:38:22;;;;;;;;;18.00;18.00;23.60;52.60;;;;;;5114573;28;8758;-66
2021/09/28 00:40:48;;;;;;;;;19.00;19.00;23.70;52.60;;;;;;5114848;28;8906;-66
2021/09/28 00:43:14;;;;;;;;;18.33;18.33;23.70;52.50;;;;;;5114922;28;8774;-66
2021/09/28 00:45:40;;;;;;;;;20.67;20.67;23.70;52.50;;;;;;5114839;28;8927;-65
2021/09/28 00:48:06;;;;;;;;;19.33;19.33;23.70;52.30;;;;;;5114919;28;8758;-66
2021/09/28 00:50:31;;;;;;;;;19.67;19.67;23.70;52.50;;;;;;5115159;28;8757;-66
2021/09/28 00:53:00;;;;;;;;;18.67;18.67;23.70;52.10;;;;;;5115026;28;8804;-67
2021/09/28 00:55:29;;;;;;;;;21.67;21.67;23.60;52.30;;;;;;5115180;28;8785;-68
2021/09/28 00:57:57;;;;;;;;;22.00;22.00;23.60;52.30;;;;;;5114934;28;8906;-68
2021/09/28 01:00:24;;;;;;;;;19.67;19.67;23.70;52.20;;;;;;5115175;28;8784;-67
2021/09/28 01:02:54;;;;;;;;;19.33;18.67;23.80;52.00;;;;;;5114968;28;8801;-69
2021/09/28 01:05:20;;;;;;;;;23.67;23.67;23.70;51.90;;;;;;5115048;28;8829;-67
2021/09/28 01:07:46;;;;;;;;;18.67;18.67;23.80;51.90;;;;;;5115019;28;9613;-68
2021/09/28 01:10:12;;;;;;;;;16.33;16.33;23.90;51.70;;;;;;5115310;28;8758;-65
2021/09/28 01:12:38;;;;;;;;;21.00;21.00;23.90;51.60;;;;;;5114764;28;9457;-70
2021/09/28 01:15:04;;;;;;;;;21.00;21.00;23.90;51.50;;;;;;5114800;28;8757;-67
2021/09/28 01:17:30;;;;;;;;;19.67;19.67;23.80;51.40;;;;;;5114888;28;8774;-66
2021/09/28 01:19:56;;;;;;;;;22.33;22.33;23.80;51.70;;;;;;5114753;28;8768;-68
2021/09/28 01:22:22;;;;;;;;;21.00;21.00;23.80;51.70;;;;;;5115048;28;8845;-67
2021/09/28 01:24:48;;;;;;;;;22.67;22.67;23.90;51.70;;;;;;5114807;28;8827;-67
2021/09/28 01:27:16;;;;;;;;;20.33;20.33;24.00;51.40;;;;;;5114619;28;8797;-68
2021/09/28 01:29:44;;;;;;;;;19.67;19.67;24.00;51.20;;;;;;5113899;28;8800;-67
2021/09/28 01:32:10;;;;;;;;;20.67;20.67;24.10;51.10;;;;;;5114975;28;8757;-68
2021/09/28 01:34:36;;;;;;;;;17.33;17.33;24.20;50.80;;;;;;5115309;28;8940;-65
2021/09/28 01:37:02;;;;;;;;;19.33;19.33;24.20;50.50;;;;;;5118378;28;8912;-66
2021/09/28 01:39:28;;;;;;;;;19.33;19.33;24.30;50.30;;;;;;5118248;28;8909;-66
2021/09/28 01:41:54;;;;;;;;;22.00;22.00;24.30;50.30;;;;;;5118350;28;8766;-66
2021/09/28 01:44:22;;;;;;;;;20.00;20.00;24.30;50.20;;;;;;5118005;28;8777;-65
2021/09/28 01:46:49;;;;;;;;;20.00;20.00;24.30;50.20;;;;;;5117113;27;8797;-66
2021/09/28 01:49:19;;;;;;;;;19.33;19.33;24.30;50.20;;;;;;5118187;28;8761;-66
2021/09/28 01:51:45;;;;;;;;;20.00;20.00;24.20;50.20;;;;;;5118170;28;8765;-66
2021/09/28 01:54:11;;;;;;;;;18.00;17.33;24.30;50.10;;;;;;5118295;28;8864;-66
2021/09/28 01:56:38;;;;;;;;;19.67;19.67;24.20;50.00;;;;;;5118019;28;8758;-66
2021/09/28 01:59:06;;;;;;;;;19.67;19.67;24.20;50.30;;;;;;5117925;28;8864;-66
2021/09/28 02:01:33;;;;;;;;;18.67;18.67;24.10;50.60;;;;;;5117907;28;8758;-66
2021/09/28 02:03:59;;;;;;;;;18.67;18.67;24.10;50.50;;;;;;5118338;28;8785;-66
2021/09/28 02:06:25;;;;;;;;;22.33;22.33;24.20;50.40;;;;;;5117749;28;8801;-66
2021/09/28 02:08:52;;;;;;;;;20.00;20.00;24.10;50.20;;;;;;5118024;28;8785;-66
2021/09/28 02:11:18;;;;;;;;;22.33;22.33;24.00;50.50;;;;;;5117679;28;8754;-66
2021/09/28 02:13:44;;;;;;;;;18.00;18.00;23.80;50.80;;;;;;5117751;28;8822;-66
2021/09/28 02:16:10;;;;;;;;;20.00;20.00;23.70;51.20;;;;;;5117611;28;8769;-66
2021/09/28 02:18:36;;;;;;;;;23.67;23.67;23.60;51.30;;;;;;5117613;28;8750;-65
2021/09/28 02:21:02;;;;;;;;;22.33;22.33;23.60;51.60;;;;;;5117843;28;8846;-66
2021/09/28 02:23:28;;;;;;;;;21.00;21.00;23.50;51.80;;;;;;5117775;28;8889;-65
2021/09/28 02:25:54;;;;;;;;;21.00;21.00;23.50;51.90;;;;;;5117403;28;8801;-66
2021/09/28 02:28:20;;;;;;;;;25.33;24.33;23.50;52.00;;;;;;5117383;28;8758;-66
2021/09/28 02:30:46;;;;;;;;;22.33;21.33;23.50;51.90;;;;;;5117657;28;8766;-66
2021/09/28 02:33:12;;;;;;;;;22.67;22.67;23.60;51.80;;;;;;5117647;28;8789;-65
2021/09/28 02:35:37;;;;;;;;;25.67;25.67;23.60;51.80;;;;;;5117307;28;9443;-66
2021/09/28 02:38:03;;;;;;;;;20.33;20.33;23.60;51.60;;;;;;5117269;28;8808;-66
2021/09/28 02:40:29;;;;;;;;;21.67;21.67;23.50;51.60;;;;;;5117047;28;8813;-66
2021/09/28 02:42:55;;;;;;;;;25.33;25.33;23.60;52.50;;;;;;5117166;28;8773;-66
2021/09/28 02:45:21;;;;;;;;;20.00;20.00;23.50;51.50;;;;;;5117288;28;8842;-66
2021/09/28 02:47:47;;;;;;;;;24.00;24.00;23.40;52.00;;;;;;5116488;28;8853;-65
2021/09/28 02:50:13;;;;;;;;;25.00;25.00;23.30;52.40;;;;;;5117239;28;8770;-65
2021/09/28 02:52:39;;;;;;;;;25.67;25.67;23.20;52.50;;;;;;5117249;28;8868;-66
2021/09/28 02:55:06;;;;;;;;;27.00;27.00;23.20;52.50;;;;;;5116955;28;8781;-66
2021/09/28 02:57:32;;;;;;;;;26.67;26.67;23.10;52.70;;;;;;5116819;28;8787;-66
2021/09/28 02:59:58;;;;;;;;;23.67;23.67;23.20;52.90;;;;;;5117379;28;8765;-66
2021/09/28 03:02:24;;;;;;;;;23.67;23.67;23.10;53.10;;;;;;5116691;28;9746;-67
2021/09/28 03:04:50;;;;;;;;;28.00;28.00;23.20;52.90;;;;;;5116939;28;8754;-66
2021/09/28 03:07:15;;;;;;;;;27.00;27.00;23.20;53.00;;;;;;5116688;28;8822;-65
2021/09/28 03:09:42;;;;;;;;;30.00;30.00;23.10;53.20;;;;;;5116568;28;8788;-66
2021/09/28 03:12:08;;;;;;;;;25.33;25.33;23.00;53.30;;;;;;5116836;28;9565;-66
2021/09/28 03:14:34;;;;;;;;;26.67;26.67;23.00;53.50;;;;;;5116459;28;8758;-66
2021/09/28 03:17:00;;;;;;;;;27.33;27.33;23.00;53.40;;;;;;5116527;28;9469;-66
2021/09/28 03:19:26;;;;;;;;;27.00;27.00;22.90;53.30;;;;;;5116711;28;8859;-66
2021/09/28 03:21:53;;;;;;;;;26.33;26.33;22.90;53.40;;;;;;5116635;28;8773;-66
2021/09/28 03:24:19;;;;;;;;;22.00;22.00;22.70;53.70;;;;;;5116312;28;8765;-66
2021/09/28 03:26:45;;;;;;;;;28.67;27.67;22.80;53.80;;;;;;5116159;28;8828;-66
2021/09/28 03:29:11;;;;;;;;;22.33;22.33;22.80;53.70;;;;;;5116250;28;8758;-66
2021/09/28 03:31:37;;;;;;;;;29.00;29.00;23.00;53.40;;;;;;5116451;28;8765;-66
2021/09/28 03:34:03;;;;;;;;;29.00;29.00;23.10;53.00;;;;;;5116452;28;8807;-66
2021/09/28 03:36:29;;;;;;;;;29.00;29.00;23.10;52.60;;;;;;5116105;28;8758;-66
2021/09/28 03:38:55;;;;;;;;;29.67;29.67;23.20;52.50;;;;;;5115586;28;8801;-66
2021/09/28 03:41:21;;;;;;;;;27.00;27.00;23.20;52.50;;;;;;5116025;28;9431;-66
2021/09/28 03:43:46;;;;;;;;;27.00;27.00;23.00;52.80;;;;;;5116085;28;8797;-66
2021/09/28 03:46:12;;;;;;;;;28.67;28.67;22.90;53.10;;;;;;5116049;28;8809;-66
2021/09/28 03:48:38;;;;;;;;;29.33;29.33;22.90;53.20;;;;;;5115850;28;8753;-66
2021/09/28 03:51:04;;;;;;;;;28.33;28.33;22.80;53.30;;;;;;5115819;28;8773;-65
2021/09/28 03:53:30;;;;;;;;;28.67;27.67;22.80;53.30;;;;;;5115723;28;8781;-66
2021/09/28 03:55:56;;;;;;;;;30.33;30.33;22.70;53.50;;;;;;5115809;28;8742;-66
2021/09/28 03:58:22;;;;;;;;;29.67;29.67;22.50;54.00;;;;;;5115635;28;8769;-66
2021/09/28 04:00:48;;;;;;;;;27.33;27.33;22.40;54.30;;;;;;5115642;28;8796;-65
2021/09/28 04:03:13;;;;;;;;;32.33;31.33;22.40;54.50;;;;;;5115619;28;8855;-66
2021/09/28 04:05:39;;;;;;;;;28.33;28.33;22.30;54.60;;;;;;5115497;28;8805;-66
2021/09/28 04:08:06;;;;;;;;;26.00;26.00;22.30;54.60;;;;;;5115533;28;8800;-65
2021/09/28 04:10:35;;;;;;;;;26.33;26.33;22.30;54.50;;;;;;5115483;28;8791;-65
2021/09/28 04:13:06;;;;;;;;;28.67;28.67;22.50;54.50;;;;;;5115708;28;8773;-65
2021/09/28 04:15:39;;;;;;;;;20.33;20.33;22.40;54.30;;;;;;5115644;28;8796;-65
2021/09/28 04:18:05;;;;;;;;;22.00;22.00;22.40;54.50;;;;;;5115450;28;8776;-65
2021/09/28 04:20:37;;;;;;;;;23.00;23.00;22.20;54.80;;;;;;5115282;28;8778;-65
2021/09/28 04:23:03;;;;;;;;;26.33;26.33;22.20;55.20;;;;;;5115518;28;8850;-65
2021/09/28 04:25:29;;;;;;;;;28.00;28.00;22.10;55.40;;;;;;5115297;28;8801;-65
2021/09/28 04:27:55;;;;;;;;;30.67;30.67;22.10;55.40;;;;;;5097129;28;8803;-65
2021/09/28 04:30:21;;;;;;;;;30.67;30.00;22.10;55.60;;;;;;5113463;28;8782;-65
2021/09/28 04:32:47;;;;;;;;;28.00;28.00;22.10;55.80;;;;;;5115030;28;8809;-65
2021/09/28 04:35:12;;;;;;;;;42.00;38.33;22.10;55.60;;;;;;5115082;28;8758;-65
2021/09/28 04:37:40;;;;;;;;;32.33;31.33;22.30;55.50;;;;;;5115007;28;8933;-65
2021/09/28 04:40:07;;;;;;;;;29.33;29.33;22.30;55.40;;;;;;5113159;28;8823;-65
2021/09/28 04:42:33;;;;;;;;;34.00;33.00;22.40;55.30;;;;;;5115528;28;8812;-66
2021/09/28 04:44:58;;;;;;;;;29.67;29.67;22.40;55.20;;;;;;5115079;28;8773;-65
2021/09/28 04:47:24;;;;;;;;;32.33;31.33;22.40;55.20;;;;;;5114782;28;8781;-65
2021/09/28 04:49:50;;;;;;;;;30.00;30.00;22.40;55.10;;;;;;5114839;28;8770;-65
2021/09/28 04:52:16;;;;;;;;;31.00;30.00;22.50;54.80;;;;;;5114744;28;8762;-65
2021/09/28 04:54:42;;;;;;;;;32.67;31.33;22.60;54.40;;;;;;5096789;28;8781;-65
2021/09/28 04:57:08;;;;;;;;;31.33;31.33;22.70;54.10;;;;;;5115065;28;8766;-66
2021/09/28 04:59:34;;;;;;;;;33.00;32.00;22.70;53.90;;;;;;5114453;28;8876;-65
2021/09/28 05:02:00;;;;;;;;;30.33;30.33;22.70;53.80;;;;;;5114605;28;9399;-65
2021/09/28 05:04:25;;;;;;;;;30.00;29.33;22.60;53.80;;;;;;5115083;28;8778;-65
2021/09/28 05:06:51;;;;;;;;;31.00;30.00;22.70;53.90;;;;;;5114792;28;8789;-65
2021/09/28 05:09:17;;;;;;;;;29.00;29.00;22.80;53.50;;;;;;5114728;28;8793;-64
2021/09/28 05:11:43;;;;;;;;;23.33;23.33;22.80;53.40;;;;;;5118828;28;8754;-65
2021/09/28 05:14:08;;;;;;;;;26.00;26.00;22.80;53.60;;;;;;5119125;28;8757;-65
2021/09/28 05:16:34;;;;;;;;;29.33;29.33;22.70;53.50;;;;;;5118828;28;8766;-65
2021/09/28 05:19:00;;;;;;;;;28.33;28.33;22.80;53.40;;;;;;5091927;28;8765;-65
2021/09/28 05:21:26;;;;;;;;;33.00;32.00;22.90;53.10;;;;;;5117876;28;8762;-66
2021/09/28 05:23:51;;;;;;;;;29.33;29.33;22.90;53.00;;;;;;5118861;28;8770;-66
2021/09/28 05:26:18;;;;;;;;;30.67;30.33;23.10;53.00;;;;;;5118545;28;8775;-66
2021/09/28 05:28:43;;;;;;;;;29.33;29.33;23.20;52.60;;;;;;5118593;28;8874;-66
2021/09/28 05:31:10;;;;;;;;;29.33;29.33;23.10;52.60;;;;;;5118433;28;8815;-66
2021/09/28 05:33:36;;;;;;;;;29.67;29.67;23.10;52.70;;;;;;5118435;28;8794;-66
2021/09/28 05:36:03;;;;;;;;;28.67;28.67;23.00;52.60;;;;;;5118472;28;8763;-66
2021/09/28 05:38:29;;;;;;;;;28.67;28.67;23.00;52.90;;;;;;5117547;28;8781;-66
2021/09/28 05:40:55;;;;;;;;;28.00;28.00;22.90;53.20;;;;;;5116177;28;8816;-66
2021/09/28 05:43:21;;;;;;;;;34.00;32.67;23.00;52.90;;;;;;5117181;28;8809;-66
2021/09/28 05:45:47;;;;;;;;;32.33;31.67;23.10;52.50;;;;;;5118370;28;8832;-66
2021/09/28 05:48:12;;;;;;;;;30.33;30.33;23.10;52.60;;;;;;5117821;28;8912;-67
2021/09/28 05:50:39;;;;;;;;;27.67;27.67;23.20;52.60;;;;;;5118182;28;8790;-67
2021/09/28 05:53:08;;;;;;;;;27.33;27.33;23.30;52.30;;;;;;5118058;28;8785;-66
2021/09/28 05:55:35;;;;;;;;;28.33;28.00;23.40;52.10;;;;;;5117949;28;8792;-66
2021/09/28 05:58:02;;;;;;;;;29.00;29.00;23.50;51.90;;;;;;5117966;28;8766;-65
2021/09/28 06:00:27;;;;;;;;;30.33;30.33;23.50;51.70;;;;;;5118209;28;8784;-66
2021/09/28 06:02:53;;;;;;;;;33.67;32.00;23.30;52.10;;;;;;5117854;28;8797;-67
2021/09/28 06:05:20;;;;;;;;;28.67;28.67;23.30;51.90;;;;;;5116391;28;8797;-66
2021/09/28 06:07:47;;;;;;;;;31.00;30.00;23.30;51.90;;;;;;5113625;28;9524;-65
2021/09/28 06:10:13;;;;;;;;;30.00;30.00;23.40;51.90;;;;;;5117665;28;9441;-65
2021/09/28 06:12:40;;;;;;;;;33.67;32.00;23.40;51.50;;;;;;5117154;28;8750;-65
2021/09/28 06:15:06;;;;;;;;;31.00;31.00;23.50;52.60;;;;;;5116503;28;8754;-65
2021/09/28 06:17:32;;;;;;;;;27.00;27.00;23.60;51.40;;;;;;5116758;28;8782;-66
2021/09/28 06:19:58;;;;;;;;;30.33;30.33;23.60;51.30;;;;;;5116949;28;8774;-66
2021/09/28 06:22:25;;;;;;;;;33.67;32.67;23.60;51.20;;;;;;5115750;28;8852;-66
2021/09/28 06:24:55;;;;;;;;;29.33;29.33;23.70;50.90;;;;;;5117959;28;9602;-66
2021/09/28 06:27:23;;;;;;;;;27.00;27.00;23.70;50.80;;;;;;5116805;28;8916;-66
2021/09/28 06:29:50;;;;;;;;;27.33;27.33;23.80;50.80;;;;;;5117358;28;8773;-65
2021/09/28 06:32:18;;;;;;;;;26.33;26.33;23.70;50.80;;;;;;5116223;28;8876;-66
2021/09/28 06:34:45;;;;;;;;;31.00;31.00;23.80;50.90;;;;;;5117176;28;8847;-66
2021/09/28 06:37:11;;;;;;;;;29.00;29.00;23.80;50.80;;;;;;5117557;28;8792;-66
2021/09/28 06:39:37;;;;;;;;;22.00;22.00;23.70;50.80;;;;;;5115672;28;8833;-65
2021/09/28 06:42:04;;;;;;;;;25.00;25.00;23.60;51.20;;;;;;5116911;28;8786;-66
2021/09/28 06:44:30;;;;;;;;;25.33;25.33;23.60;51.60;;;;;;5116977;28;8781;-63
2021/09/28 06:46:56;;;;;;;;;27.67;27.67;23.50;51.80;;;;;;5115138;28;8805;-66
2021/09/28 06:49:22;;;;;;;;;25.00;25.00;23.60;51.90;;;;;;5104994;28;8794;-66
2021/09/28 06:51:48;;;;;;;;;29.33;29.33;23.60;51.80;;;;;;5112972;28;8781;-65
2021/09/28 06:54:14;;;;;;;;;29.67;29.67;23.70;51.70;;;;;;5116723;28;8761;-66
2021/09/28 06:56:41;;;;;;;;;28.33;28.33;23.90;51.40;;;;;;5116710;28;8870;-66
2021/09/28 06:59:09;;;;;;;;;29.67;29.67;24.00;51.20;;;;;;5115714;28;8789;-66
2021/09/28 07:01:36;;;;;;;;;31.33;31.33;24.20;51.10;;;;;;5117080;28;8876;-64
2021/09/28 07:04:03;;;;;;;;;29.00;29.00;24.20;50.50;;;;;;5117108;28;9520;-64
2021/09/28 07:06:29;;;;;;;;;28.00;28.00;24.30;50.30;;;;;;5116864;28;8797;-65
2021/09/28 07:08:55;;;;;;;;;28.67;28.67;24.30;50.40;;;;;;5116635;28;8754;-64
2021/09/28 07:11:20;;;;;;;;;31.00;30.00;24.50;50.30;;;;;;5116529;28;8766;-65
2021/09/28 07:13:50;;;;;;;;;27.33;27.33;24.60;49.70;;;;;;5116448;28;8760;-64
2021/09/28 07:16:16;;;;;;;;;24.00;24.00;24.70;49.60;;;;;;5116841;28;9571;-65
2021/09/28 07:18:43;;;;;;;;;33.00;33.00;24.70;49.40;;;;;;5116062;28;8880;-64
2021/09/28 07:21:09;;;;;;;;;29.00;29.00;24.70;49.40;;;;;;5116674;28;8856;-64
2021/09/28 07:23:35;;;;;;;;;26.33;26.33;24.70;49.30;;;;;;5116533;28;8784;-63
2021/09/28 07:26:02;;;;;;;;;29.33;29.33;24.50;49.50;;;;;;5116493;28;8882;-66
2021/09/28 07:28:29;;;;;;;;;29.67;29.67;24.60;49.60;;;;;;5115659;28;8766;-64
2021/09/28 07:30:55;;;;;;;;;32.67;31.67;24.70;49.60;;;;;;5115613;28;9422;-64
2021/09/28 07:33:21;;;;;;;;;31.33;31.00;24.80;50.00;;;;;;5115674;28;8801;-64
2021/09/28 07:35:47;;;;;;;;;29.67;29.33;24.90;49.80;;;;;;5116007;28;9458;-64
2021/09/28 07:38:14;;;;;;;;;27.33;27.33;25.00;49.00;;;;;;5098000;28;8792;-64
2021/09/28 07:40:42;;;;;;;;;24.00;24.00;25.10;49.00;;;;;;5115825;28;8769;-64
2021/09/28 07:43:08;;;;;;;;;27.33;27.33;25.20;48.80;;;;;;5115913;28;8770;-64
2021/09/28 07:45:34;;;;;;;;;26.00;26.00;25.00;48.40;;;;;;5115792;28;8834;-64
2021/09/28 07:48:00;;;;;;;;;28.00;28.00;25.10;48.70;;;;;;5115533;28;8761;-64
2021/09/28 07:50:27;;;;;;;;;31.00;31.00;25.20;48.20;;;;;;5097970;28;9665;-64
2021/09/28 07:52:53;;;;;;;;;28.33;28.33;25.20;47.90;;;;;;5095530;28;8763;-64
2021/09/28 07:55:19;;;;;;;;;29.00;29.00;25.30;47.60;;;;;;5095464;28;8849;-64
2021/09/28 07:57:45;;;;;;;;;23.67;23.67;25.20;47.60;;;;;;5095466;28;8764;-64
2021/09/28 08:00:11;;;;;;;;;25.33;25.33;25.20;47.50;;;;;;5095122;28;8780;-65
2021/09/28 08:02:38;;;;;;;;;27.33;27.33;25.00;47.80;;;;;;5095133;28;8796;-65
2021/09/28 08:05:05;;;;;;;;;29.00;29.00;24.80;48.20;;;;;;5095359;28;8857;-65
2021/09/28 08:07:31;;;;;;;;;23.00;23.00;24.60;48.40;;;;;;5094884;28;8776;-65
2021/09/28 08:09:57;;;;;;;;;26.33;26.33;24.40;49.00;;;;;;5094827;28;8776;-64
2021/09/28 08:12:23;;;;;;;;;27.00;27.00;24.40;49.50;;;;;;5094217;28;8783;-65
2021/09/28 08:14:49;;;;;;;;;25.67;25.33;24.50;49.70;;;;;;5112174;28;8926;-65
2021/09/28 08:17:15;;;;;;;;;26.33;26.33;24.50;49.80;;;;;;5115307;28;8769;-65
2021/09/28 08:19:40;;;;;;;;;22.00;22.00;24.50;50.60;;;;;;5096230;28;8767;-65
2021/09/28 08:22:10;;;;;;;;;26.67;26.67;24.40;49.70;;;;;;5115021;28;8786;-66
2021/09/28 08:24:42;;;;;;;;;26.33;26.00;24.60;49.80;;;;;;5115101;28;8775;-65
2021/09/28 08:30:00;;;;;;;;;28.00;28.00;24.80;49.50;;;;;;5115110;28;8897;-64
2021/09/28 08:32:26;;;;;;;;;28.33;28.33;24.70;49.60;;;;;;5114814;28;8759;-67
2021/09/28 08:34:52;;;;;;;;;32.33;31.67;24.90;49.80;;;;;;5115205;28;8797;-64
2021/09/28 08:37:19;;;;;;;;;27.67;27.67;24.90;49.30;;;;;;5114942;28;8775;-68
2021/09/28 08:39:46;;;;;;;;;30.33;29.67;25.00;49.30;;;;;;5114733;28;8791;-66
2021/09/28 08:42:13;;;;;;;;;28.33;28.33;25.10;48.90;;;;;;5114673;28;8863;-68
2021/09/28 08:44:41;;;;;;;;;25.00;25.00;25.20;48.50;;;;;;5114294;28;8755;-67
2021/09/28 08:47:06;;;;;;;;;27.00;27.00;25.40;48.00;;;;;;5114968;28;8790;-69
2021/09/28 08:49:32;;;;;;;;;28.67;28.67;25.20;47.90;;;;;;5114784;28;8754;-68
2021/09/28 08:52:02;;;;;;;;;27.33;27.33;25.10;48.50;;;;;;5114621;28;8862;-63
2021/09/28 08:54:28;;;;;;;;;18.67;18.33;25.10;48.20;;;;;;5114695;28;8881;-64
2021/09/28 08:56:54;;;;;;;;;20.67;20.67;25.30;48.00;;;;;;5114772;28;8784;-63
2021/09/28 08:59:21;;;;;;;;;25.33;25.33;25.50;47.90;;;;;;5114557;28;8761;-64
2021/09/28 09:02:00;;;;;;;;;21.00;21.00;25.40;46.80;;;;;;5114557;28;8781;-64
2021/09/28 09:04:26;;;;;;;;;24.33;24.33;25.40;46.70;;;;;;5114444;28;8812;-64
2021/09/28 09:06:54;;;;;;;;;22.67;22.67;25.20;46.70;;;;;;5114448;28;9431;-62
2021/09/28 09:09:22;;;;;;;;;23.33;23.33;24.90;47.10;;;;;;5114544;28;8774;-62
2021/09/28 09:11:50;;;;;;;;;20.33;20.33;24.90;47.90;;;;;;5114892;28;9336;-63
2021/09/28 09:14:20;;;;;;;;;21.67;21.67;24.80;47.60;;;;;;5114590;28;8793;-65
2021/09/28 09:16:48;;;;;;;;;20.67;20.67;24.70;47.90;;;;;;5114826;28;8847;-62
2021/09/28 09:19:29;;;;;;;;;22.33;22.33;24.70;48.20;;;;;;5114499;28;8804;-62
2021/09/28 09:22:00;;;;;;;;;19.67;19.67;24.70;48.10;;;;;;5114506;28;8764;-64
2021/09/28 09:24:46;;;;;;;;;26.00;26.00;24.80;48.20;;;;;;5114292;28;8765;-64
2021/09/28 09:27:19;;;;;;;;;22.33;22.33;24.70;48.50;;;;;;5114346;28;8858;-62
2021/09/28 09:30:04;;;;;;;;;22.00;22.00;24.60;48.70;;;;;;5114383;28;8811;-64
2021/09/28 09:32:47;;;;;;;;;30.00;29.00;24.50;49.10;;;;;;5114231;28;8778;-63
2021/09/28 09:35:31;;;;;;;;;26.67;26.67;24.50;49.50;;;;;;5114162;28;8765;-64
2021/09/28 09:38:05;;;;;;;;;29.67;29.67;24.50;49.50;;;;;;5114224;28;8897;-64
2021/09/28 09:40:33;;;;;;;;;39.00;35.00;24.50;49.60;;;;;;5113969;28;8793;-64
2021/09/28 09:42:58;;;;;;;;;32.33;30.67;24.50;49.60;;;;;;5114417;28;8761;-65
2021/09/28 09:45:25;;;;;;;;;29.67;29.67;24.70;49.60;;;;;;5113660;28;8765;-65
2021/09/28 09:47:51;;;;;;;;;30.00;30.00;25.00;49.40;;;;;;5114072;28;8788;-68
2021/09/28 09:50:19;;;;;;;;;27.33;27.33;24.80;48.90;;;;;;5096601;28;8784;-65
2021/09/28 09:52:57;;;;;;;;;27.33;27.33;24.80;48.90;;;;;;5093638;28;8784;-64
2021/09/28 09:55:34;;;;;;;;;28.33;28.33;25.00;49.00;;;;;;5102694;28;8766;-66
2021/09/28 09:58:02;;;;;;;;;31.00;30.67;25.20;48.60;;;;;;5117051;28;8858;-66
2021/09/28 10:00:28;;;;;;;;;27.67;27.67;25.20;48.30;;;;;;5127477;27;8858;-66
2021/09/28 10:02:55;;;;;;;;;23.33;23.33;25.30;48.30;;;;;;5117809;28;8802;-66
2021/09/28 10:05:21;;;;;;;;;26.00;26.00;25.00;48.70;;;;;;5117598;28;8781;-66
2021/09/28 10:07:50;;;;;;;;;28.33;27.67;25.00;48.90;;;;;;5117999;28;8788;-65
2021/09/28 10:10:18;;;;;;;;;24.33;24.33;24.90;49.00;;;;;;5117681;28;8789;-71
2021/09/28 10:12:44;;;;;;;;;25.00;25.00;24.70;49.60;;;;;;5117484;28;8784;-66
2021/09/28 10:15:15;;;;;;;;;24.33;24.33;24.50;50.40;;;;;;5117644;28;8756;-65
2021/09/28 10:17:45;;;;;;;;;28.67;28.67;24.30;51.20;;;;;;5117482;28;8755;-68
2021/09/28 10:20:28;;;;;;;;;25.00;24.67;24.20;51.70;;;;;;5103562;28;8778;-64
2021/09/28 10:23:24;;;;;;;;;26.00;26.00;24.10;52.10;;;;;;5117389;28;8789;-65
2021/09/28 10:25:50;;;;;;;;;25.00;25.00;24.00;52.70;;;;;;5114298;28;8819;-64
2021/09/28 10:28:16;;;;;;;;;24.00;24.00;24.10;52.90;;;;;;5117334;28;8758;-70
2021/09/28 10:30:48;;;;;;;;;25.00;25.00;24.20;52.70;;;;;;5117080;28;8781;-68
2021/09/28 10:33:50;;;;;;;;;26.33;26.33;24.20;52.20;;;;;;5117322;28;8789;-64
2021/09/28 10:36:18;;;;;;;;;23.33;23.33;24.00;52.70;;;;;;5096605;28;8785;-65
2021/09/28 10:38:58;;;;;;;;;20.67;20.67;24.00;52.70;;;;;;5096647;28;8755;-65
2021/09/28 10:41:43;;;;;;;;;23.33;23.33;24.00;53.10;;;;;;5096838;28;8878;-64
2021/09/28 10:44:29;;;;;;;;;27.00;27.00;23.90;53.30;;;;;;5096787;28;8752;-64
2021/09/28 10:46:56;;;;;;;;;27.67;27.00;24.00;53.20;;;;;;5096785;28;9489;-65
2021/09/28 10:49:25;;;;;;;;;26.67;26.67;24.10;53.00;;;;;;5108615;28;8766;-64
2021/09/28 10:52:11;;;;;;;;;25.67;25.67;24.20;52.60;;;;;;5116877;28;8780;-64
2021/09/28 10:55:06;;;;;;;;;26.67;26.67;24.20;52.60;;;;;;5116704;28;8842;-64
2021/09/28 10:57:53;;;;;;;;;26.33;26.33;24.30;52.50;;;;;;5116545;28;8766;-64
2021/09/28 11:00:20;;;;;;;;;25.00;25.00;24.30;52.10;;;;;;5116534;28;8754;-65
2021/09/28 11:03:00;;;;;;;;;26.00;26.00;24.50;51.90;;;;;;5116851;28;8790;-63
2021/09/28 11:05:31;;;;;;;;;28.00;28.00;24.30;51.60;;;;;;5116588;28;8807;-65
2021/09/28 11:07:58;;;;;;;;;11.67;11.33;24.30;51.50;;;;;;5115937;28;8906;-64
2021/09/28 11:10:25;;;;;;;;;28.00;28.00;24.20;51.80;;;;;;5116261;28;8777;-64
2021/09/28 11:12:50;;;;;;;;;30.00;30.00;24.20;52.40;;;;;;5116532;28;9580;-63
2021/09/28 11:15:22;;;;;;;;;26.00;26.00;24.20;52.10;;;;;;5116572;28;8757;-64
2021/09/28 11:17:48;;;;;;;;;28.00;28.00;24.20;52.00;;;;;;5115740;28;8825;-63
2021/09/28 11:20:21;;;;;;;;;30.33;30.33;24.30;51.90;;;;;;5099980;28;8749;-63
2021/09/28 11:23:08;;;;;;;;;35.67;34.00;24.40;51.50;;;;;;5116354;28;8770;-63
2021/09/28 11:25:36;;;;;;;;;28.00;28.00;24.50;51.50;;;;;;5116155;28;8864;-64
2021/09/28 11:28:02;;;;;;;;;24.00;24.00;24.60;51.50;;;;;;5116180;28;8758;-64
2021/09/28 11:30:28;;;;;;;;;26.67;26.67;24.60;51.00;;;;;;5115981;28;8788;-64
2021/09/28 11:33:00;;;;;;;;;26.67;26.67;24.70;51.10;;;;;;5116082;28;8924;-64
2021/09/28 11:35:26;;;;;;;;;31.67;30.33;24.90;50.40;;;;;;5116104;28;8785;-64
2021/09/28 11:38:00;;;;;;;;;25.00;25.00;25.00;49.80;;;;;;5115925;28;8863;-64
2021/09/28 11:40:30;;;;;;;;;26.33;26.33;25.00;49.90;;;;;;5115797;28;8821;-64
2021/09/28 11:42:56;;;;;;;;;26.33;26.33;25.20;49.70;;;;;;5115861;28;8789;-64
2021/09/28 11:45:29;;;;;;;;;25.00;25.00;25.30;49.20;;;;;;5115803;28;8785;-64
2021/09/28 11:47:56;;;;;;;;;24.00;24.00;25.30;49.00;;;;;;5115573;28;9508;-64
2021/09/28 11:50:25;;;;;;;;;20.67;20.67;25.40;48.60;;;;;;5115358;28;8778;-64
2021/09/28 11:52:52;;;;;;;;;23.33;23.33;25.50;48.60;;;;;;5115582;28;8754;-64
2021/09/28 11:55:22;;;;;;;;;27.00;27.00;25.80;48.40;;;;;;5115796;28;8816;-64
2021/09/28 11:57:50;;;;;;;;;26.33;26.33;26.20;47.60;;;;;;5115439;28;8761;-64
2021/09/28 12:00:16;;;;;;;;;25.00;25.00;26.10;46.20;;;;;;5115261;28;8769;-64
2021/09/28 12:02:42;;;;;;;;;22.67;22.67;26.20;46.30;;;;;;5114976;28;9506;-64
2021/09/28 12:10:16;;;;;;;;;20.00;20.00;26.50;45.60;;;;;;5115661;28;11417;-64
2021/09/28 12:12:42;;;;;;;;;28.33;27.67;26.30;45.30;;;;;;5114003;28;8785;-63
2021/09/28 12:15:10;;;;;;;;;20.67;20.67;26.20;45.50;;;;;;5110124;27;8821;-63
2021/09/28 12:17:39;;;;;;;;;20.67;20.67;25.90;46.00;;;;;;5109327;28;8850;-64
2021/09/28 12:20:07;;;;;;;;;21.00;21.00;25.80;46.40;;;;;;5110451;28;8890;-64
2021/09/28 12:22:39;;;;;;;;;24.67;24.67;25.60;47.00;;;;;;5113227;28;8754;-64
2021/09/28 12:25:12;;;;;;;;;21.00;21.00;25.20;47.80;;;;;;5113421;28;8774;-64
2021/09/28 12:28:02;;;;;;;;;23.00;23.00;25.00;48.50;;;;;;5115140;28;8823;-64
2021/09/28 12:30:31;;;;;;;;;25.00;25.00;25.00;49.00;;;;;;5115146;28;11464;-64
2021/09/28 12:32:57;;;;;;;;;21.33;21.33;25.10;49.10;;;;;;5115093;28;8947;-64
2021/09/28 12:35:33;;;;;;;;;24.00;24.00;25.40;49.00;;;;;;5115341;28;9431;-64
2021/09/28 12:38:02;;;;;;;;;22.00;22.00;25.40;48.50;;;;;;5115147;28;8762;-64
2021/09/28 12:40:33;;;;;;;;;23.00;23.00;25.60;48.30;;;;;;5114869;28;8816;-64
2021/09/28 12:43:14;;;;;;;;;23.00;23.00;25.80;48.00;;;;;;5115011;28;8796;-63
2021/09/28 12:45:52;;;;;;;;;21.33;21.33;25.70;47.40;;;;;;5115424;28;8761;-64
2021/09/28 12:48:38;;;;;;;;;24.67;24.67;25.50;47.40;;;;;;5115254;28;11521;-64
2021/09/28 12:51:05;;;;;;;;;20.33;20.33;25.30;48.00;;;;;;5114948;28;8770;-64
2021/09/28 12:53:32;;;;;;;;;24.33;24.33;25.30;48.20;;;;;;5114807;28;8781;-64
2021/09/28 12:55:58;;;;;;;;;24.00;24.00;25.30;48.30;;;;;;5115111;28;8785;-64
2021/09/28 12:58:24;;;;;;;;;22.67;22.67;25.40;48.20;;;;;;5114735;28;8765;-64
2021/09/28 13:00:52;;;;;;;;;22.67;22.67;25.50;48.10;;;;;;5114751;28;9379;-64
2021/09/28 13:03:21;;;;;;;;;27.67;27.67;25.40;47.80;;;;;;5114805;28;8807;-64
2021/09/28 13:05:53;;;;;;;;;24.33;23.33;25.40;47.90;;;;;;5114682;28;8756;-64
2021/09/28 13:08:24;;;;;;;;;25.33;25.33;25.50;47.90;;;;;;5114692;28;8797;-64
2021/09/28 13:10:55;;;;;;;;;22.33;22.33;25.60;47.90;;;;;;5114732;28;8872;-64
2021/09/28 13:13:23;;;;;;;;;23.33;23.33;25.60;47.40;;;;;;5114678;28;8776;-64
2021/09/28 13:15:49;;;;;;;;;24.00;24.00;25.50;47.80;;;;;;5114787;28;8758;-64
2021/09/28 13:18:17;;;;;;;;;21.00;21.00;25.60;47.70;;;;;;5114795;28;8836;-64
2021/09/28 13:20:43;;;;;;;;;22.67;22.67;25.90;47.20;;;;;;5114564;28;8778;-64
2021/09/28 13:23:09;;;;;;;;;19.67;19.67;26.10;47.00;;;;;;5114113;28;9430;-65
2021/09/28 13:25:36;;;;;;;;;23.00;23.00;26.20;46.50;;;;;;5114699;28;8785;-65